• Join FlightAware (Why Join?)
  • Login
  • US Flag 
04:32AM EST


 

Airport Tracker/Info


-or-


 

Live Flight TrackerFlight Track Log ✈ N9424F ✈ 14-Jul-2013 ✈ KTYQ - KGYY

Flight Track Log - Related Links

Times and Time Zones

All times are in EDT time to prevent confusion due to time zone crossing. See the N9424F flight status page for this flight to view local times or setup timezone preferences in your user account.

Time Position Orientation Groundspeed Altitude Reporting Facility
EDT Latitude Longitude Course Direction KTS MPH feet Rate Location/Type
06:59PM 40.0167 -86.2500 360° North 76 87 1,300  Level Indianapolis TRACON
06:59PM 40.0167 -86.2500 90° East 77 89 1,400 480 Climbing Indianapolis TRACON
07:00PM 40.0167 -86.2333 90° East 103 119 1,900 600 Climbing Indianapolis TRACON
07:01PM 40.0469 -86.2572 329° Northwest 99 114 2,600 600 Climbing Chicago Center
07:02PM 40.0697 -86.2747 330° Northwest 99 114 3,200 480 Climbing Chicago Center
07:03PM 40.0931 -86.2922 330° Northwest 97 112 3,700 300 Climbing Chicago Center
07:04PM 40.1236 -86.3142 331° Northwest 100 115 3,900 120 Climbing Chicago Center
07:05PM 40.1533 -86.3358 331° Northwest 112 129 4,000  Climbing Indianapolis Center
07:06PM 40.1844 -86.3575 332° Northwest 119 137 4,000  Level Chicago Center
07:07PM 40.2139 -86.3783 332° Northwest 121 139 4,000 -60 Level Chicago Center
07:08PM 40.2489 -86.4022 332° Northwest 122 140 3,900 -60 Descending Chicago Center
07:09PM 40.2792 -86.4258 329° Northwest 123 142 3,900  Level Chicago Center
07:10PM 40.3078 -86.4467 331° Northwest 121 139 3,900  Level Chicago Center
07:11PM 40.3383 -86.4703 330° Northwest 121 139 3,900  Level Chicago Center
07:12PM 40.3667 -86.4939 328° Northwest 122 140 3,900  Level Chicago Center
07:13PM 40.3972 -86.5147 333° Northwest 122 140 3,900  Level Chicago Center
07:14PM 40.4258 -86.5356 331° Northwest 121 139 3,900  Level Chicago Center
07:15PM 40.4603 -86.5594 332° Northwest 123 142 3,900  Level Chicago Center
07:16PM 40.4908 -86.5806 332° Northwest 121 139 3,900  Level Chicago Center
07:17PM 40.5194 -86.6014 331° Northwest 121 139 3,900  Level Chicago Center
07:18PM 40.5519 -86.6225 334° Northwest 123 142 3,900  Level Chicago Center
07:19PM 40.5825 -86.6436 332° Northwest 125 144 3,900  Level Chicago Center
07:20PM 40.6178 -86.6669 333° Northwest 122 140 3,900  Level Chicago Center
07:21PM 40.6475 -86.6886 331° Northwest 122 140 3,900  Level Chicago Center
07:22PM 40.6719 -86.7094 327° Northwest 124 143 3,900  Level Chicago Center
07:23PM 40.7025 -86.7306 332° Northwest 124 143 4,000  Climbing Chicago Center
07:24PM 40.7331 -86.7544 329° Northwest 124 143 3,900 -60 Descending Chicago Center
07:25PM 40.7633 -86.7786 329° Northwest 123 142 3,900  Level Chicago Center
07:27PM 40.7972 -86.8039 331° Northwest 121 139 3,900  Level Chicago Center
07:28PM 40.8344 -86.8281 334° Northwest 124 143 3,900  Level Chicago Center
07:29PM 40.8622 -86.8514 328° Northwest 121 139 3,900  Level Chicago Center
07:30PM 40.8917 -86.8725 332° Northwest 121 139 3,900  Level Chicago Center
07:31PM 40.9208 -86.8942 331° Northwest 121 139 3,900  Level Chicago Center
07:32PM 40.9503 -86.9156 331° Northwest 121 139 3,900  Level Chicago Center
07:33PM 40.9856 -86.9403 332° Northwest 120 138 4,000  Climbing Chicago Center
07:34PM 41.0139 -86.9611 331° Northwest 118 136 4,000  Level Chicago Center
07:35PM 41.0433 -86.9822 332° Northwest 120 138 4,000  Level Chicago Center
07:36PM 41.0719 -87.0042 330° Northwest 120 138 4,000  Level Chicago Center
07:37PM 41.1008 -87.0272 329° Northwest 121 139 4,000  Level Chicago Center
07:38PM 41.1381 -87.0525 333° Northwest 124 143 4,000  Level Chicago Center
07:39PM 41.1669 -87.0725 332° Northwest 122 140 4,000 -60 Level Chicago Center
07:40PM 41.1961 -87.0928 332° Northwest 120 138 3,900 -60 Descending Chicago Center
07:41PM 41.2225 -87.1142 329° Northwest 116 133 3,900  Level Chicago Center
07:42PM 41.2522 -87.1342 333° Northwest 118 136 3,900  Level Chicago Center
07:43PM 41.2858 -87.1600 330° Northwest 118 136 3,900  Level Chicago Center
07:44PM 41.3147 -87.1822 330° Northwest 121 139 3,900  Level Chicago Center
07:45PM 41.3425 -87.2017 332° Northwest 116 133 3,900  Level Chicago Center
07:46PM 41.3711 -87.2242 329° Northwest 119 137 3,900 -120 Level Chicago Center
07:47PM 41.4008 -87.2472 330° Northwest 122 140 3,700 -540 Descending Chicago Center
07:48PM 41.4408 -87.2767 331° Northwest 130 150 2,900 -660 Descending Chicago Center
07:49PM 41.4739 -87.3003 332° Northwest 134 154 2,400 -300 Descending Chicago Center
07:50PM 41.5033 -87.3236 329° Northwest 132 152 2,400  Level Chicago Center
07:51PM 41.5317 -87.3442 331° Northwest 125 144 2,400 -300 Level Chicago Center
07:52PM 41.5672 -87.3717 330° Northwest 123 142 1,900 -480 Descending Chicago Center
07:54PM 41.5911 -87.3992 319° Northwest 125 144 1,500 -420 Descending Chicago Center
07:56PM 41.6000 -87.4000 334° Northwest  Level FlightAware Approximate